sensor_id;sensor_type;location;lat;lon;timestamp;temperature;humidity
16958;DHT22;8595;52.542;11.974;2023-05-07T00:01:14;10.40;99.90
16958;DHT22;8595;52.542;11.974;2023-05-07T00:03:41;10.50;99.90
16958;DHT22;8595;52.542;11.974;2023-05-07T00:06:08;10.40;99.90
16958;DHT22;8595;52.542;11.974;2023-05-07T00:08:38;10.40;99.90
16958;DHT22;8595;52.542;11.974;2023-05-07T00:11:06;10.40;99.90
16958;DHT22;8595;52.542;11.974;2023-05-07T00:13:35;10.30;99.90
16958;DHT22;8595;52.542;11.974;2023-05-07T00:16:02;10.40;99.90
16958;DHT22;8595;52.542;11.974;2023-05-07T00:18:28;10.40;99.90
16958;DHT22;8595;52.542;11.974;2023-05-07T00:20:55;10.40;99.90
16958;DHT22;8595;52.542;11.974;2023-05-07T00:23:22;10.30;99.90
16958;DHT22;8595;52.542;11.974;2023-05-07T00:25:50;10.20;99.90
16958;DHT22;8595;52.542;11.974;2023-05-07T00:28:18;10.30;99.90
16958;DHT22;8595;52.542;11.974;2023-05-07T00:30:47;10.20;99.90
16958;DHT22;8595;52.542;11.974;2023-05-07T00:33:13;10.30;99.90
16958;DHT22;8595;52.542;11.974;2023-05-07T00:35:41;10.30;99.90
16958;DHT22;8595;52.542;11.974;2023-05-07T00:38:08;10.40;99.90
16958;DHT22;8595;52.542;11.974;2023-05-07T00:40:35;10.40;99.90
16958;DHT22;8595;52.542;11.974;2023-05-07T00:43:02;10.50;99.90
16958;DHT22;8595;52.542;11.974;2023-05-07T00:45:32;10.50;99.90
16958;DHT22;8595;52.542;11.974;2023-05-07T00:48:00;10.50;99.90
16958;DHT22;8595;52.542;11.974;2023-05-07T00:50:27;10.50;99.90
16958;DHT22;8595;52.542;11.974;2023-05-07T00:52:55;10.50;99.90
16958;DHT22;8595;52.542;11.974;2023-05-07T00:55:24;10.40;99.90
16958;DHT22;8595;52.542;11.974;2023-05-07T00:57:51;10.30;99.90
16958;DHT22;8595;52.542;11.974;2023-05-07T01:00:18;10.30;99.90
16958;DHT22;8595;52.542;11.974;2023-05-07T01:02:47;10.30;99.90
16958;DHT22;8595;52.542;11.974;2023-05-07T01:05:16;10.20;99.90
16958;DHT22;8595;52.542;11.974;2023-05-07T01:07:43;10.20;99.90
16958;DHT22;8595;52.542;11.974;2023-05-07T01:10:11;10.30;99.90
16958;DHT22;8595;52.542;11.974;2023-05-07T01:12:40;10.30;99.90
16958;DHT22;8595;52.542;11.974;2023-05-07T01:15:08;10.30;99.90
16958;DHT22;8595;52.542;11.974;2023-05-07T01:17:36;10.30;99.90
16958;DHT22;8595;52.542;11.974;2023-05-07T01:20:06;10.30;99.90
16958;DHT22;8595;52.542;11.974;2023-05-07T01:22:35;10.30;99.90
16958;DHT22;8595;52.542;11.974;2023-05-07T01:25:03;10.30;99.90
16958;DHT22;8595;52.542;11.974;2023-05-07T01:27:30;10.30;99.90
16958;DHT22;8595;52.542;11.974;2023-05-07T01:29:59;10.30;99.90
16958;DHT22;8595;52.542;11.974;2023-05-07T01:32:29;10.30;99.90
16958;DHT22;8595;52.542;11.974;2023-05-07T01:35:00;10.30;99.90
16958;DHT22;8595;52.542;11.974;2023-05-07T01:37:28;10.40;99.90
16958;DHT22;8595;52.542;11.974;2023-05-07T01:39:57;10.20;99.90
16958;DHT22;8595;52.542;11.974;2023-05-07T01:42:25;10.20;99.90
16958;DHT22;8595;52.542;11.974;2023-05-07T01:44:52;10.20;99.90
16958;DHT22;8595;52.542;11.974;2023-05-07T01:47:19;10.10;99.90
16958;DHT22;8595;52.542;11.974;2023-05-07T01:49:47;10.10;99.90
16958;DHT22;8595;52.542;11.974;2023-05-07T01:52:14;10.20;99.90
16958;DHT22;8595;52.542;11.974;2023-05-07T01:54:41;10.20;99.90
16958;DHT22;8595;52.542;11.974;2023-05-07T01:57:09;10.20;99.90
16958;DHT22;8595;52.542;11.974;2023-05-07T01:59:36;10.10;99.90
16958;DHT22;8595;52.542;11.974;2023-05-07T02:02:03;10.20;99.90
16958;DHT22;8595;52.542;11.974;2023-05-07T02:04:29;10.30;99.90
16958;DHT22;8595;52.542;11.974;2023-05-07T02:06:57;10.30;99.90
16958;DHT22;8595;52.542;11.974;2023-05-07T02:09:24;10.30;99.90
16958;DHT22;8595;52.542;11.974;2023-05-07T02:11:52;10.40;99.90
16958;DHT22;8595;52.542;11.974;2023-05-07T02:14:20;10.30;99.90
16958;DHT22;8595;52.542;11.974;2023-05-07T02:16:47;10.30;99.90
16958;DHT22;8595;52.542;11.974;2023-05-07T02:19:15;10.40;99.90
16958;DHT22;8595;52.542;11.974;2023-05-07T02:21:42;10.30;99.90
16958;DHT22;8595;52.542;11.974;2023-05-07T02:24:08;10.20;99.90
16958;DHT22;8595;52.542;11.974;2023-05-07T02:26:36;10.20;99.90
16958;DHT22;8595;52.542;11.974;2023-05-07T02:29:02;10.20;99.90
16958;DHT22;8595;52.542;11.974;2023-05-07T02:31:30;10.30;99.90
16958;DHT22;8595;52.542;11.974;2023-05-07T02:34:00;10.30;99.90
16958;DHT22;8595;52.542;11.974;2023-05-07T02:36:27;10.30;99.90
16958;DHT22;8595;52.542;11.974;2023-05-07T02:38:54;10.30;99.90
16958;DHT22;8595;52.542;11.974;2023-05-07T02:41:21;10.30;99.90
16958;DHT22;8595;52.542;11.974;2023-05-07T02:43:48;10.20;99.90
16958;DHT22;8595;52.542;11.974;2023-05-07T02:46:14;10.10;99.90
16958;DHT22;8595;52.542;11.974;2023-05-07T02:48:45;10.10;99.90
16958;DHT22;8595;52.542;11.974;2023-05-07T02:51:13;10.20;99.90
16958;DHT22;8595;52.542;11.974;2023-05-07T02:53:40;10.20;99.90
16958;DHT22;8595;52.542;11.974;2023-05-07T02:56:07;10.30;99.90
16958;DHT22;8595;52.542;11.974;2023-05-07T02:58:34;10.30;99.90
16958;DHT22;8595;52.542;11.974;2023-05-07T03:01:01;10.30;99.90
16958;DHT22;8595;52.542;11.974;2023-05-07T03:03:28;10.30;99.90
16958;DHT22;8595;52.542;11.974;2023-05-07T03:05:56;10.30;99.90
16958;DHT22;8595;52.542;11.974;2023-05-07T03:08:24;10.30;99.90
16958;DHT22;8595;52.542;11.974;2023-05-07T03:10:51;10.30;99.90
16958;DHT22;8595;52.542;11.974;2023-05-07T03:13:18;10.40;99.90
16958;DHT22;8595;52.542;11.974;2023-05-07T03:15:45;10.40;99.90
16958;DHT22;8595;52.542;11.974;2023-05-07T03:18:11;10.40;99.90
16958;DHT22;8595;52.542;11.974;2023-05-07T03:20:38;10.40;99.90
16958;DHT22;8595;52.542;11.974;2023-05-07T03:23:06;10.40;99.90
16958;DHT22;8595;52.542;11.974;2023-05-07T03:25:33;10.50;99.90
16958;DHT22;8595;52.542;11.974;2023-05-07T03:28:00;10.40;99.90
16958;DHT22;8595;52.542;11.974;2023-05-07T03:30:27;10.30;99.90
16958;DHT22;8595;52.542;11.974;2023-05-07T03:32:54;10.30;99.90
16958;DHT22;8595;52.542;11.974;2023-05-07T03:35:20;10.30;99.90
16958;DHT22;8595;52.542;11.974;2023-05-07T03:37:47;10.30;99.90
16958;DHT22;8595;52.542;11.974;2023-05-07T03:40:16;10.30;99.90
16958;DHT22;8595;52.542;11.974;2023-05-07T03:42:42;10.50;99.90
16958;DHT22;8595;52.542;11.974;2023-05-07T03:45:09;10.40;99.90
16958;DHT22;8595;52.542;11.974;2023-05-07T03:47:36;10.30;99.90
16958;DHT22;8595;52.542;11.974;2023-05-07T03:50:04;10.40;99.90
16958;DHT22;8595;52.542;11.974;2023-05-07T03:52:30;10.40;99.90
16958;DHT22;8595;52.542;11.974;2023-05-07T03:54:57;10.40;99.90
16958;DHT22;8595;52.542;11.974;2023-05-07T03:57:25;10.30;99.90
16958;DHT22;8595;52.542;11.974;2023-05-07T03:59:52;10.30;99.90
16958;DHT22;8595;52.542;11.974;2023-05-07T04:02:19;10.40;99.90
16958;DHT22;8595;52.542;11.974;2023-05-07T04:04:48;10.30;99.90
16958;DHT22;8595;52.542;11.974;2023-05-07T04:07:16;10.20;99.90
16958;DHT22;8595;52.542;11.974;2023-05-07T04:09:44;10.20;99.90
16958;DHT22;8595;52.542;11.974;2023-05-07T04:12:11;10.20;99.90
16958;DHT22;8595;52.542;11.974;2023-05-07T04:14:40;10.20;99.90
16958;DHT22;8595;52.542;11.974;2023-05-07T04:17:06;10.30;99.90
16958;DHT22;8595;52.542;11.974;2023-05-07T04:19:36;10.20;99.90
16958;DHT22;8595;52.542;11.974;2023-05-07T04:22:03;10.30;99.90
16958;DHT22;8595;52.542;11.974;2023-05-07T04:24:31;10.40;99.90
16958;DHT22;8595;52.542;11.974;2023-05-07T04:26:58;10.20;99.90
16958;DHT22;8595;52.542;11.974;2023-05-07T04:29:25;10.20;99.90
16958;DHT22;8595;52.542;11.974;2023-05-07T04:31:54;10.20;99.90
16958;DHT22;8595;52.542;11.974;2023-05-07T04:34:21;10.20;99.90
16958;DHT22;8595;52.542;11.974;2023-05-07T04:36:48;10.20;99.90
16958;DHT22;8595;52.542;11.974;2023-05-07T04:39:15;10.30;99.90
16958;DHT22;8595;52.542;11.974;2023-05-07T04:41:42;10.30;99.90
16958;DHT22;8595;52.542;11.974;2023-05-07T04:44:08;10.40;99.90
16958;DHT22;8595;52.542;11.974;2023-05-07T04:46:36;10.50;99.90
16958;DHT22;8595;52.542;11.974;2023-05-07T04:49:04;10.40;99.90
16958;DHT22;8595;52.542;11.974;2023-05-07T04:51:32;10.40;99.90
16958;DHT22;8595;52.542;11.974;2023-05-07T04:53:59;10.40;99.90
16958;DHT22;8595;52.542;11.974;2023-05-07T04:56:28;10.40;99.90
16958;DHT22;8595;52.542;11.974;2023-05-07T04:58:57;10.50;99.90
16958;DHT22;8595;52.542;11.974;2023-05-07T05:01:28;10.50;99.90
16958;DHT22;8595;52.542;11.974;2023-05-07T05:03:55;10.50;99.90
16958;DHT22;8595;52.542;11.974;2023-05-07T05:06:29;10.60;99.90
16958;DHT22;8595;52.542;11.974;2023-05-07T05:08:56;10.60;99.90
16958;DHT22;8595;52.542;11.974;2023-05-07T05:11:22;10.50;99.90
16958;DHT22;8595;52.542;11.974;2023-05-07T05:13:49;10.60;99.90
16958;DHT22;8595;52.542;11.974;2023-05-07T05:16:16;10.60;99.90
16958;DHT22;8595;52.542;11.974;2023-05-07T05:18:43;10.60;99.90
16958;DHT22;8595;52.542;11.974;2023-05-07T05:21:10;10.60;99.90
16958;DHT22;8595;52.542;11.974;2023-05-07T05:23:39;10.70;99.90
16958;DHT22;8595;52.542;11.974;2023-05-07T05:26:08;10.60;99.90
16958;DHT22;8595;52.542;11.974;2023-05-07T05:28:35;10.70;99.90
16958;DHT22;8595;52.542;11.974;2023-05-07T05:31:02;10.80;99.90
16958;DHT22;8595;52.542;11.974;2023-05-07T05:33:30;10.70;99.90
16958;DHT22;8595;52.542;11.974;2023-05-07T05:35:57;10.80;99.90
16958;DHT22;8595;52.542;11.974;2023-05-07T05:38:25;10.70;99.90
16958;DHT22;8595;52.542;11.974;2023-05-07T05:40:54;10.50;99.90
16958;DHT22;8595;52.542;11.974;2023-05-07T05:43:21;10.60;99.90
16958;DHT22;8595;52.542;11.974;2023-05-07T05:45:48;10.70;99.90
16958;DHT22;8595;52.542;11.974;2023-05-07T05:48:15;10.80;99.90
16958;DHT22;8595;52.542;11.974;2023-05-07T05:50:42;10.80;99.90
16958;DHT22;8595;52.542;11.974;2023-05-07T05:53:08;10.80;99.90
16958;DHT22;8595;52.542;11.974;2023-05-07T05:55:35;10.80;99.90
16958;DHT22;8595;52.542;11.974;2023-05-07T05:58:04;10.80;99.90
16958;DHT22;8595;52.542;11.974;2023-05-07T06:00:32;10.80;99.90
16958;DHT22;8595;52.542;11.974;2023-05-07T06:03:00;10.70;99.90
16958;DHT22;8595;52.542;11.974;2023-05-07T06:05:27;10.70;99.90
16958;DHT22;8595;52.542;11.974;2023-05-07T06:07:53;10.70;99.90
16958;DHT22;8595;52.542;11.974;2023-05-07T06:10:20;10.70;99.90
16958;DHT22;8595;52.542;11.974;2023-05-07T06:12:47;10.80;99.90
16958;DHT22;8595;52.542;11.974;2023-05-07T06:15:16;10.90;99.90
16958;DHT22;8595;52.542;11.974;2023-05-07T06:17:42;10.80;99.90
16958;DHT22;8595;52.542;11.974;2023-05-07T06:20:10;10.80;99.90
16958;DHT22;8595;52.542;11.974;2023-05-07T06:22:36;10.90;99.90
16958;DHT22;8595;52.542;11.974;2023-05-07T06:25:04;10.80;99.90
16958;DHT22;8595;52.542;11.974;2023-05-07T06:27:31;10.90;99.90
16958;DHT22;8595;52.542;11.974;2023-05-07T06:29:58;11.00;99.90
16958;DHT22;8595;52.542;11.974;2023-05-07T06:32:27;11.00;99.90
16958;DHT22;8595;52.542;11.974;2023-05-07T06:34:54;10.90;99.90
16958;DHT22;8595;52.542;11.974;2023-05-07T06:37:22;10.80;99.90
16958;DHT22;8595;52.542;11.974;2023-05-07T06:39:51;10.90;99.90
16958;DHT22;8595;52.542;11.974;2023-05-07T06:42:19;11.00;99.90
16958;DHT22;8595;52.542;11.974;2023-05-07T06:44:46;10.90;99.90
16958;DHT22;8595;52.542;11.974;2023-05-07T06:47:13;10.80;99.90
16958;DHT22;8595;52.542;11.974;2023-05-07T06:49:41;10.80;99.90
16958;DHT22;8595;52.542;11.974;2023-05-07T06:52:09;10.80;99.90
16958;DHT22;8595;52.542;11.974;2023-05-07T06:54:35;10.80;99.90
16958;DHT22;8595;52.542;11.974;2023-05-07T06:57:02;10.80;99.90
16958;DHT22;8595;52.542;11.974;2023-05-07T06:59:29;10.80;99.90
16958;DHT22;8595;52.542;11.974;2023-05-07T07:01:56;10.80;99.90
16958;DHT22;8595;52.542;11.974;2023-05-07T07:04:23;10.90;99.90
16958;DHT22;8595;52.542;11.974;2023-05-07T07:06:53;10.90;99.90
16958;DHT22;8595;52.542;11.974;2023-05-07T07:09:22;10.90;99.90
16958;DHT22;8595;52.542;11.974;2023-05-07T07:11:49;10.90;99.90
16958;DHT22;8595;52.542;11.974;2023-05-07T07:14:15;10.90;99.90
16958;DHT22;8595;52.542;11.974;2023-05-07T07:16:42;10.80;99.90
16958;DHT22;8595;52.542;11.974;2023-05-07T07:19:09;10.80;99.90
16958;DHT22;8595;52.542;11.974;2023-05-07T07:21:35;10.70;99.90
16958;DHT22;8595;52.542;11.974;2023-05-07T07:24:04;10.80;99.90
16958;DHT22;8595;52.542;11.974;2023-05-07T07:26:31;10.80;99.90
16958;DHT22;8595;52.542;11.974;2023-05-07T07:28:58;10.90;99.90
16958;DHT22;8595;52.542;11.974;2023-05-07T07:31:25;10.90;99.90
16958;DHT22;8595;52.542;11.974;2023-05-07T07:33:52;11.00;99.90
16958;DHT22;8595;52.542;11.974;2023-05-07T07:36:19;11.00;99.90
16958;DHT22;8595;52.542;11.974;2023-05-07T07:38:46;11.10;99.90
16958;DHT22;8595;52.542;11.974;2023-05-07T07:41:14;11.30;99.90
16958;DHT22;8595;52.542;11.974;2023-05-07T07:43:41;11.40;99.90
16958;DHT22;8595;52.542;11.974;2023-05-07T07:46:07;11.30;99.90
16958;DHT22;8595;52.542;11.974;2023-05-07T07:48:35;11.30;99.90
16958;DHT22;8595;52.542;11.974;2023-05-07T07:51:01;11.40;99.90
16958;DHT22;8595;52.542;11.974;2023-05-07T07:53:28;11.50;99.90
16958;DHT22;8595;52.542;11.974;2023-05-07T07:55:55;11.50;99.90
16958;DHT22;8595;52.542;11.974;2023-05-07T07:58:23;11.40;99.90
16958;DHT22;8595;52.542;11.974;2023-05-07T08:00:51;11.40;99.90
16958;DHT22;8595;52.542;11.974;2023-05-07T08:03:18;11.30;99.90
16958;DHT22;8595;52.542;11.974;2023-05-07T08:05:45;11.40;99.90
16958;DHT22;8595;52.542;11.974;2023-05-07T08:08:11;11.20;99.90
16958;DHT22;8595;52.542;11.974;2023-05-07T08:10:38;11.40;99.90
16958;DHT22;8595;52.542;11.974;2023-05-07T08:13:06;11.50;99.90
16958;DHT22;8595;52.542;11.974;2023-05-07T08:15:34;11.50;99.90
16958;DHT22;8595;52.542;11.974;2023-05-07T08:18:02;11.40;99.90
16958;DHT22;8595;52.542;11.974;2023-05-07T08:20:28;11.30;99.90
16958;DHT22;8595;52.542;11.974;2023-05-07T08:22:55;11.20;99.90
16958;DHT22;8595;52.542;11.974;2023-05-07T08:25:22;11.20;99.90
16958;DHT22;8595;52.542;11.974;2023-05-07T08:27:49;11.20;99.90
16958;DHT22;8595;52.542;11.974;2023-05-07T08:30:16;11.20;99.90
16958;DHT22;8595;52.542;11.974;2023-05-07T08:32:44;11.20;99.90
16958;DHT22;8595;52.542;11.974;2023-05-07T08:35:11;11.40;99.90
16958;DHT22;8595;52.542;11.974;2023-05-07T08:37:39;11.50;99.90
16958;DHT22;8595;52.542;11.974;2023-05-07T08:40:06;11.60;99.90
16958;DHT22;8595;52.542;11.974;2023-05-07T08:42:35;11.60;99.90
16958;DHT22;8595;52.542;11.974;2023-05-07T08:45:04;11.50;99.90
16958;DHT22;8595;52.542;11.974;2023-05-07T08:47:39;11.40;99.90
16958;DHT22;8595;52.542;11.974;2023-05-07T08:50:08;11.60;99.90
16958;DHT22;8595;52.542;11.974;2023-05-07T08:52:35;11.60;99.90
16958;DHT22;8595;52.542;11.974;2023-05-07T08:55:04;11.70;99.90
16958;DHT22;8595;52.542;11.974;2023-05-07T08:57:31;11.80;99.90
16958;DHT22;8595;52.542;11.974;2023-05-07T08:59:57;12.00;99.90
16958;DHT22;8595;52.542;11.974;2023-05-07T09:02:24;12.10;99.90
16958;DHT22;8595;52.542;11.974;2023-05-07T09:04:51;12.10;99.90
16958;DHT22;8595;52.542;11.974;2023-05-07T09:07:20;12.20;99.90
16958;DHT22;8595;52.542;11.974;2023-05-07T09:09:47;12.20;99.90
16958;DHT22;8595;52.542;11.974;2023-05-07T09:12:13;12.30;99.90
16958;DHT22;8595;52.542;11.974;2023-05-07T09:14:40;12.30;99.90
16958;DHT22;8595;52.542;11.974;2023-05-07T09:17:07;12.20;99.90
16958;DHT22;8595;52.542;11.974;2023-05-07T09:19:34;12.20;99.90
16958;DHT22;8595;52.542;11.974;2023-05-07T09:22:01;12.30;99.90
16958;DHT22;8595;52.542;11.974;2023-05-07T09:24:29;12.30;99.90
16958;DHT22;8595;52.542;11.974;2023-05-07T09:27:00;12.40;99.90
16958;DHT22;8595;52.542;11.974;2023-05-07T09:29:27;12.60;99.90
16958;DHT22;8595;52.542;11.974;2023-05-07T09:31:55;12.50;99.90
16958;DHT22;8595;52.542;11.974;2023-05-07T09:34:22;12.50;99.90
16958;DHT22;8595;52.542;11.974;2023-05-07T09:36:49;12.50;99.90
16958;DHT22;8595;52.542;11.974;2023-05-07T09:39:16;12.70;99.90
16958;DHT22;8595;52.542;11.974;2023-05-07T09:41:45;12.60;99.90
16958;DHT22;8595;52.542;11.974;2023-05-07T09:44:12;12.80;99.90
16958;DHT22;8595;52.542;11.974;2023-05-07T09:46:39;13.10;99.90
16958;DHT22;8595;52.542;11.974;2023-05-07T09:49:11;13.10;99.90
16958;DHT22;8595;52.542;11.974;2023-05-07T09:51:43;13.10;99.90
16958;DHT22;8595;52.542;11.974;2023-05-07T09:54:12;13.00;99.90
16958;DHT22;8595;52.542;11.974;2023-05-07T09:56:39;13.10;99.90
16958;DHT22;8595;52.542;11.974;2023-05-07T09:59:10;13.20;99.90
16958;DHT22;8595;52.542;11.974;2023-05-07T10:01:40;13.40;99.90
16958;DHT22;8595;52.542;11.974;2023-05-07T10:04:09;13.60;99.90
16958;DHT22;8595;52.542;11.974;2023-05-07T10:06:37;13.70;99.90
16958;DHT22;8595;52.542;11.974;2023-05-07T10:09:05;13.60;99.90
16958;DHT22;8595;52.542;11.974;2023-05-07T10:11:33;13.80;99.90
16958;DHT22;8595;52.542;11.974;2023-05-07T10:14:02;13.80;99.90
16958;DHT22;8595;52.542;11.974;2023-05-07T10:16:34;13.90;99.90
16958;DHT22;8595;52.542;11.974;2023-05-07T10:19:10;14.00;99.90
16958;DHT22;8595;52.542;11.974;2023-05-07T10:21:39;14.00;99.90
16958;DHT22;8595;52.542;11.974;2023-05-07T10:24:12;13.90;99.90
16958;DHT22;8595;52.542;11.974;2023-05-07T10:26:43;13.90;99.90
16958;DHT22;8595;52.542;11.974;2023-05-07T10:29:14;13.80;99.90
16958;DHT22;8595;52.542;11.974;2023-05-07T10:31:58;13.70;99.90
16958;DHT22;8595;52.542;11.974;2023-05-07T10:34:29;13.70;99.90
16958;DHT22;8595;52.542;11.974;2023-05-07T10:36:59;14.00;99.90
16958;DHT22;8595;52.542;11.974;2023-05-07T10:39:27;14.40;99.90
16958;DHT22;8595;52.542;11.974;2023-05-07T10:41:54;14.70;99.90
16958;DHT22;8595;52.542;11.974;2023-05-07T10:44:27;15.10;99.90
16958;DHT22;8595;52.542;11.974;2023-05-07T10:47:06;15.20;99.90
16958;DHT22;8595;52.542;11.974;2023-05-07T10:49:36;15.40;99.90
16958;DHT22;8595;52.542;11.974;2023-05-07T10:52:17;15.30;99.90
16958;DHT22;8595;52.542;11.974;2023-05-07T10:54:46;15.40;99.90
16958;DHT22;8595;52.542;11.974;2023-05-07T10:57:33;15.60;99.90
16958;DHT22;8595;52.542;11.974;2023-05-07T11:00:01;15.80;99.90
16958;DHT22;8595;52.542;11.974;2023-05-07T11:05:35;16.00;99.90
16958;DHT22;8595;52.542;11.974;2023-05-07T11:08:03;16.60;99.90
16958;DHT22;8595;52.542;11.974;2023-05-07T11:10:55;16.70;99.90
16958;DHT22;8595;52.542;11.974;2023-05-07T11:13:43;16.70;99.90
16958;DHT22;8595;52.542;11.974;2023-05-07T11:16:17;17.20;99.90
16958;DHT22;8595;52.542;11.974;2023-05-07T11:18:50;17.50;99.90
16958;DHT22;8595;52.542;11.974;2023-05-07T11:21:36;17.80;99.90
16958;DHT22;8595;52.542;11.974;2023-05-07T11:24:06;18.00;99.90
16958;DHT22;8595;52.542;11.974;2023-05-07T11:26:51;18.70;99.90
16958;DHT22;8595;52.542;11.974;2023-05-07T11:29:20;19.00;99.90
16958;DHT22;8595;52.542;11.974;2023-05-07T11:31:51;19.00;99.90
16958;DHT22;8595;52.542;11.974;2023-05-07T11:34:22;18.50;99.90
16958;DHT22;8595;52.542;11.974;2023-05-07T11:36:51;18.40;99.90
16958;DHT22;8595;52.542;11.974;2023-05-07T11:39:29;18.20;99.90
16958;DHT22;8595;52.542;11.974;2023-05-07T11:41:57;17.90;99.90
16958;DHT22;8595;52.542;11.974;2023-05-07T11:44:24;17.50;99.90
16958;DHT22;8595;52.542;11.974;2023-05-07T11:46:51;17.50;99.90
16958;DHT22;8595;52.542;11.974;2023-05-07T11:49:18;17.60;99.90
16958;DHT22;8595;52.542;11.974;2023-05-07T11:51:45;17.90;99.90
16958;DHT22;8595;52.542;11.974;2023-05-07T11:54:16;18.00;99.90
16958;DHT22;8595;52.542;11.974;2023-05-07T11:56:44;18.10;99.90
16958;DHT22;8595;52.542;11.974;2023-05-07T11:59:17;18.40;99.90
16958;DHT22;8595;52.542;11.974;2023-05-07T12:01:45;19.40;99.90
16958;DHT22;8595;52.542;11.974;2023-05-07T12:04:12;19.90;99.90
16958;DHT22;8595;52.542;11.974;2023-05-07T12:06:39;19.70;99.90
16958;DHT22;8595;52.542;11.974;2023-05-07T12:09:06;20.20;99.90
16958;DHT22;8595;52.542;11.974;2023-05-07T12:11:38;20.20;99.90
16958;DHT22;8595;52.542;11.974;2023-05-07T12:14:06;20.00;99.90
16958;DHT22;8595;52.542;11.974;2023-05-07T12:16:33;20.00;99.90
16958;DHT22;8595;52.542;11.974;2023-05-07T12:19:00;20.00;99.90
16958;DHT22;8595;52.542;11.974;2023-05-07T12:21:27;19.80;99.90
16958;DHT22;8595;52.542;11.974;2023-05-07T12:23:55;19.50;99.90
16958;DHT22;8595;52.542;11.974;2023-05-07T12:26:23;19.80;99.90
16958;DHT22;8595;52.542;11.974;2023-05-07T12:28:53;19.80;99.90
16958;DHT22;8595;52.542;11.974;2023-05-07T12:31:20;19.50;99.90
16958;DHT22;8595;52.542;11.974;2023-05-07T12:33:48;19.60;99.90
16958;DHT22;8595;52.542;11.974;2023-05-07T12:36:15;19.80;99.90
16958;DHT22;8595;52.542;11.974;2023-05-07T12:38:43;19.50;99.90
16958;DHT22;8595;52.542;11.974;2023-05-07T12:41:10;19.30;99.90
16958;DHT22;8595;52.542;11.974;2023-05-07T12:43:38;19.00;99.90
16958;DHT22;8595;52.542;11.974;2023-05-07T12:46:07;19.00;99.90
16958;DHT22;8595;52.542;11.974;2023-05-07T12:48:36;19.20;99.90
16958;DHT22;8595;52.542;11.974;2023-05-07T12:51:03;19.00;99.90
16958;DHT22;8595;52.542;11.974;2023-05-07T12:53:31;18.90;99.90
16958;DHT22;8595;52.542;11.974;2023-05-07T12:55:59;18.50;99.90
16958;DHT22;8595;52.542;11.974;2023-05-07T12:58:28;18.40;99.90
16958;DHT22;8595;52.542;11.974;2023-05-07T13:00:55;18.30;99.90
16958;DHT22;8595;52.542;11.974;2023-05-07T13:03:27;18.20;99.90
16958;DHT22;8595;52.542;11.974;2023-05-07T13:05:55;18.40;99.90
16958;DHT22;8595;52.542;11.974;2023-05-07T13:08:30;18.50;99.90
16958;DHT22;8595;52.542;11.974;2023-05-07T13:11:02;18.20;99.90
16958;DHT22;8595;52.542;11.974;2023-05-07T13:13:33;17.90;99.90
16958;DHT22;8595;52.542;11.974;2023-05-07T13:16:00;17.40;99.90
16958;DHT22;8595;52.542;11.974;2023-05-07T13:18:29;17.30;99.90
16958;DHT22;8595;52.542;11.974;2023-05-07T13:20:56;17.00;99.90
16958;DHT22;8595;52.542;11.974;2023-05-07T13:23:23;16.90;99.90
16958;DHT22;8595;52.542;11.974;2023-05-07T13:25:51;16.80;99.90
16958;DHT22;8595;52.542;11.974;2023-05-07T13:28:19;16.60;99.90
16958;DHT22;8595;52.542;11.974;2023-05-07T13:30:46;16.50;99.90
16958;DHT22;8595;52.542;11.974;2023-05-07T13:33:13;16.50;99.90
16958;DHT22;8595;52.542;11.974;2023-05-07T13:35:42;16.50;99.90
16958;DHT22;8595;52.542;11.974;2023-05-07T13:38:09;16.40;99.90
16958;DHT22;8595;52.542;11.974;2023-05-07T13:40:35;16.30;99.90
16958;DHT22;8595;52.542;11.974;2023-05-07T13:43:02;16.30;99.90
16958;DHT22;8595;52.542;11.974;2023-05-07T13:45:29;16.20;99.90
16958;DHT22;8595;52.542;11.974;2023-05-07T13:47:57;17.00;99.90
16958;DHT22;8595;52.542;11.974;2023-05-07T13:50:24;17.90;99.90
16958;DHT22;8595;52.542;11.974;2023-05-07T13:52:53;18.60;99.90
16958;DHT22;8595;52.542;11.974;2023-05-07T13:55:21;19.10;99.90
16958;DHT22;8595;52.542;11.974;2023-05-07T13:57:54;19.50;99.90
16958;DHT22;8595;52.542;11.974;2023-05-07T14:00:21;19.90;99.90
16958;DHT22;8595;52.542;11.974;2023-05-07T14:02:48;20.40;99.90
16958;DHT22;8595;52.542;11.974;2023-05-07T14:05:15;20.90;99.90
16958;DHT22;8595;52.542;11.974;2023-05-07T14:07:42;21.10;99.90
16958;DHT22;8595;52.542;11.974;2023-05-07T14:10:11;20.80;99.90
16958;DHT22;8595;52.542;11.974;2023-05-07T14:12:38;20.70;99.90
16958;DHT22;8595;52.542;11.974;2023-05-07T14:15:06;20.90;99.90
16958;DHT22;8595;52.542;11.974;2023-05-07T14:17:33;21.20;99.90
16958;DHT22;8595;52.542;11.974;2023-05-07T14:20:00;21.80;99.90
16958;DHT22;8595;52.542;11.974;2023-05-07T14:22:27;22.00;99.90
16958;DHT22;8595;52.542;11.974;2023-05-07T14:24:53;22.30;99.90
16958;DHT22;8595;52.542;11.974;2023-05-07T14:27:22;22.30;99.90
16958;DHT22;8595;52.542;11.974;2023-05-07T14:29:48;22.10;99.90
16958;DHT22;8595;52.542;11.974;2023-05-07T14:32:16;22.40;99.90
16958;DHT22;8595;52.542;11.974;2023-05-07T14:34:44;22.60;99.90
16958;DHT22;8595;52.542;11.974;2023-05-07T14:37:11;22.20;99.90
16958;DHT22;8595;52.542;11.974;2023-05-07T14:39:38;21.50;99.90
16958;DHT22;8595;52.542;11.974;2023-05-07T14:42:05;21.00;99.90
16958;DHT22;8595;52.542;11.974;2023-05-07T14:44:34;20.90;99.90
16958;DHT22;8595;52.542;11.974;2023-05-07T14:47:01;20.80;99.90
16958;DHT22;8595;52.542;11.974;2023-05-07T14:49:28;21.00;99.90
16958;DHT22;8595;52.542;11.974;2023-05-07T14:51:57;21.00;99.90
16958;DHT22;8595;52.542;11.974;2023-05-07T14:54:24;21.50;99.90
16958;DHT22;8595;52.542;11.974;2023-05-07T14:56:52;21.80;99.90
16958;DHT22;8595;52.542;11.974;2023-05-07T14:59:19;21.60;99.90
16958;DHT22;8595;52.542;11.974;2023-05-07T15:01:48;21.40;99.90
16958;DHT22;8595;52.542;11.974;2023-05-07T15:04:15;21.30;99.90
16958;DHT22;8595;52.542;11.974;2023-05-07T15:06:41;21.30;99.90
16958;DHT22;8595;52.542;11.974;2023-05-07T15:09:08;21.50;99.90
16958;DHT22;8595;52.542;11.974;2023-05-07T15:11:35;21.50;99.90
16958;DHT22;8595;52.542;11.974;2023-05-07T15:14:02;21.60;99.90
16958;DHT22;8595;52.542;11.974;2023-05-07T15:16:29;21.30;99.90
16958;DHT22;8595;52.542;11.974;2023-05-07T15:18:57;21.00;99.90
16958;DHT22;8595;52.542;11.974;2023-05-07T15:21:23;21.20;99.90
16958;DHT22;8595;52.542;11.974;2023-05-07T15:23:52;21.50;99.90
16958;DHT22;8595;52.542;11.974;2023-05-07T15:26:18;21.60;99.90
16958;DHT22;8595;52.542;11.974;2023-05-07T15:28:45;21.40;99.90
16958;DHT22;8595;52.542;11.974;2023-05-07T15:31:12;21.20;99.90
16958;DHT22;8595;52.542;11.974;2023-05-07T15:33:39;21.20;99.90
16958;DHT22;8595;52.542;11.974;2023-05-07T15:36:07;21.00;99.90
16958;DHT22;8595;52.542;11.974;2023-05-07T15:38:34;21.10;99.90